createdAt,value
2018-09-29T00:01:12.319Z,17.81
2018-09-29T00:03:42.494Z,17.84
2018-09-29T00:06:10.676Z,17.87
2018-09-29T00:08:39.397Z,17.94
2018-09-29T00:11:06.896Z,17.83
2018-09-29T00:13:34.195Z,18.00
2018-09-29T00:16:03.567Z,17.84
2018-09-29T00:18:30.497Z,17.62
2018-09-29T00:20:58.780Z,17.47
2018-09-29T00:23:25.861Z,17.41
2018-09-29T00:25:54.112Z,17.43
2018-09-29T00:28:22.778Z,17.51
2018-09-29T00:30:52.397Z,17.60
2018-09-29T00:35:50.990Z,17.97
2018-09-29T00:38:17.485Z,17.77
2018-09-29T00:40:44.026Z,17.76
2018-09-29T00:43:10.602Z,17.61
2018-09-29T00:45:37.182Z,17.52
2018-09-29T00:48:03.795Z,17.51
2018-09-29T00:50:30.344Z,17.77
2018-09-29T00:52:56.852Z,17.84
2018-09-29T00:55:23.413Z,17.76
2018-09-29T00:57:50.533Z,17.39
2018-09-29T01:00:17.204Z,17.26
2018-09-29T01:02:43.761Z,17.46
2018-09-29T01:05:10.551Z,17.56
2018-09-29T01:07:37.077Z,17.58
2018-09-29T01:10:03.626Z,17.75
2018-09-29T01:12:30.245Z,17.55
2018-09-29T01:14:56.779Z,18.00
2018-09-29T01:17:23.414Z,17.58
2018-09-29T01:19:49.950Z,17.37
2018-09-29T01:22:16.501Z,17.29
2018-09-29T01:24:43.093Z,17.39
2018-09-29T01:27:10.722Z,17.45
2018-09-29T01:29:37.355Z,17.28
2018-09-29T01:32:03.933Z,17.26
2018-09-29T01:34:30.601Z,17.61
2018-09-29T01:36:57.125Z,17.36
2018-09-29T01:39:23.730Z,16.94
2018-09-29T01:41:50.258Z,17.10
2018-09-29T01:44:16.814Z,17.12
2018-09-29T01:46:43.317Z,17.14
2018-09-29T01:49:10.911Z,17.36
2018-09-29T01:51:37.402Z,17.27
2018-09-29T01:54:03.953Z,17.20
2018-09-29T01:56:30.492Z,17.17
2018-09-29T01:58:57.093Z,17.10
2018-09-29T02:01:24.242Z,17.42
2018-09-29T02:03:50.778Z,17.62
2018-09-29T02:06:17.304Z,17.19
2018-09-29T02:08:43.813Z,17.03
2018-09-29T02:11:11.356Z,17.14
2018-09-29T02:13:37.792Z,17.14
2018-09-29T02:16:04.296Z,16.98
2018-09-29T02:18:30.843Z,17.22
2018-09-29T02:20:57.352Z,17.18
2018-09-29T02:23:23.853Z,17.22
2018-09-29T02:25:50.332Z,17.04
2018-09-29T02:28:16.785Z,16.91
2018-09-29T02:30:43.310Z,16.95
2018-09-29T02:33:09.805Z,17.03
2018-09-29T02:35:36.266Z,17.20
2018-09-29T02:38:02.725Z,17.67
2018-09-29T02:40:29.335Z,17.25
2018-09-29T02:42:55.826Z,17.24
2018-09-29T02:45:22.262Z,16.97
2018-09-29T02:47:48.877Z,17.03
2018-09-29T02:50:15.525Z,17.04
2018-09-29T02:52:42.622Z,17.49
2018-09-29T02:55:09.140Z,17.16
2018-09-29T02:57:35.593Z,17.17
2018-09-29T03:00:02.169Z,17.25
2018-09-29T03:02:28.753Z,17.09
2018-09-29T03:04:55.229Z,16.98
2018-09-29T03:07:21.824Z,17.32
2018-09-29T03:09:48.480Z,17.26
2018-09-29T03:12:14.969Z,17.11
2018-09-29T03:14:41.481Z,17.19
2018-09-29T03:17:07.971Z,17.58
2018-09-29T03:19:34.504Z,17.61
2018-09-29T03:22:00.990Z,17.58
2018-09-29T03:24:28.103Z,17.59
2018-09-29T03:26:54.608Z,17.52
2018-09-29T03:29:21.132Z,17.74
2018-09-29T03:31:47.735Z,17.34
2018-09-29T03:34:15.320Z,17.15
2018-09-29T03:36:41.911Z,17.00
2018-09-29T03:39:09.025Z,16.97
2018-09-29T03:41:36.154Z,17.13
2018-09-29T03:44:03.459Z,17.16
2018-09-29T03:46:30.032Z,16.71
2018-09-29T03:48:57.333Z,16.47
2018-09-29T03:51:25.490Z,16.53
2018-09-29T03:53:51.988Z,16.62
2018-09-29T03:56:19.473Z,16.74
2018-09-29T03:58:45.983Z,16.85
2018-09-29T04:01:13.156Z,16.80
2018-09-29T04:03:39.755Z,16.69
2018-09-29T04:06:06.231Z,16.39
2018-09-29T04:08:32.722Z,16.19
2018-09-29T04:10:59.430Z,16.27
2018-09-29T04:13:26.037Z,16.24
2018-09-29T04:15:52.530Z,16.37
2018-09-29T04:18:19.115Z,16.44
2018-09-29T04:20:45.823Z,16.31
2018-09-29T04:23:15.078Z,16.21
2018-09-29T04:25:43.151Z,16.16
2018-09-29T04:28:10.676Z,15.66
2018-09-29T04:30:37.202Z,15.80
2018-09-29T04:33:03.661Z,15.91
2018-09-29T04:35:30.871Z,15.88
2018-09-29T04:37:59.281Z,16.01
2018-09-29T04:40:25.857Z,16.38
2018-09-29T04:42:53.343Z,16.09
2018-09-29T04:45:19.907Z,16.15
2018-09-29T04:47:47.244Z,16.22
2018-09-29T04:50:15.821Z,16.44
2018-09-29T04:52:42.956Z,16.42
2018-09-29T04:55:10.182Z,16.20
2018-09-29T04:57:36.820Z,16.09
2018-09-29T05:00:03.402Z,16.62
2018-09-29T05:02:30.570Z,16.74
2018-09-29T05:04:57.178Z,16.45
2018-09-29T05:07:24.321Z,16.41
2018-09-29T05:09:51.106Z,16.23
2018-09-29T05:12:17.639Z,16.18
2018-09-29T05:14:44.296Z,16.15
2018-09-29T05:17:10.796Z,16.51
2018-09-29T05:19:37.270Z,16.44
2018-09-29T05:22:04.786Z,16.26
2018-09-29T05:24:31.283Z,16.32
2018-09-29T05:26:57.752Z,16.16
2018-09-29T05:29:25.100Z,16.09
2018-09-29T05:31:51.630Z,16.17
2018-09-29T05:34:18.359Z,16.25
2018-09-29T05:36:47.702Z,16.11
2018-09-29T05:39:14.356Z,16.21
2018-09-29T05:41:41.520Z,16.16
2018-09-29T05:44:10.206Z,16.22
2018-09-29T05:46:38.060Z,16.46
2018-09-29T05:49:04.574Z,16.74
2018-09-29T05:51:31.872Z,16.90
2018-09-29T05:53:58.586Z,17.02
2018-09-29T05:56:26.197Z,17.01
2018-09-29T05:58:52.909Z,16.97
2018-09-29T06:01:20.201Z,17.06
2018-09-29T06:03:46.980Z,17.01
2018-09-29T06:06:14.058Z,16.73
2018-09-29T06:08:41.220Z,16.85
2018-09-29T06:11:08.551Z,17.26
2018-09-29T06:13:35.412Z,17.52
2018-09-29T06:16:02.337Z,17.53
2018-09-29T06:18:29.553Z,17.16
2018-09-29T06:20:56.095Z,17.50
2018-09-29T06:23:23.379Z,17.40
2018-09-29T06:25:50.164Z,17.42
2018-09-29T06:28:17.631Z,17.60
2018-09-29T06:30:44.363Z,17.53
2018-09-29T06:33:11.674Z,17.78
2018-09-29T06:35:38.186Z,17.93
2018-09-29T06:38:04.674Z,17.96
2018-09-29T06:40:31.852Z,18.20
2018-09-29T06:43:02.859Z,18.21
2018-09-29T06:45:30.372Z,18.70
2018-09-29T06:47:56.970Z,18.05
2018-09-29T06:50:24.601Z,18.16
2018-09-29T06:52:51.844Z,18.47
2018-09-29T06:55:18.987Z,18.61
2018-09-29T06:57:45.621Z,18.68
2018-09-29T07:00:12.636Z,18.90
2018-09-29T07:02:40.271Z,18.88
2018-09-29T07:05:07.602Z,19.06
2018-09-29T07:07:34.125Z,19.05
2018-09-29T07:10:00.762Z,19.11
2018-09-29T07:12:27.362Z,19.16
2018-09-29T07:14:54.259Z,19.54
2018-09-29T07:17:21.047Z,19.52
2018-09-29T07:19:47.656Z,19.48
2018-09-29T07:22:14.150Z,19.36
2018-09-29T07:24:40.739Z,19.20
2018-09-29T07:27:08.238Z,19.36
2018-09-29T07:29:35.284Z,19.79
2018-09-29T07:32:03.059Z,19.92
2018-09-29T07:34:29.544Z,20.10
2018-09-29T07:36:55.987Z,19.75
2018-09-29T07:39:22.458Z,19.77
2018-09-29T07:41:52.158Z,19.62
2018-09-29T07:44:19.336Z,20.11
2018-09-29T07:46:46.907Z,19.96
2018-09-29T07:49:14.515Z,19.78
2018-09-29T07:51:41.219Z,19.93
2018-09-29T07:54:07.918Z,20.18
2018-09-29T07:56:34.429Z,20.35
2018-09-29T07:59:00.898Z,19.98
2018-09-29T08:01:28.386Z,19.53
2018-09-29T08:03:54.939Z,19.39
2018-09-29T08:06:25.847Z,20.17
2018-09-29T08:08:53.904Z,20.33
2018-09-29T08:11:20.479Z,20.51
2018-09-29T08:13:48.066Z,20.39
2018-09-29T08:16:15.629Z,20.66
2018-09-29T08:18:43.000Z,20.20
2018-09-29T08:21:09.469Z,20.19
2018-09-29T08:23:36.405Z,19.65
2018-09-29T08:26:04.541Z,19.67
2018-09-29T08:28:31.053Z,19.99
2018-09-29T08:30:58.074Z,20.26
2018-09-29T08:33:25.308Z,20.37
2018-09-29T08:35:51.826Z,20.31
2018-09-29T08:38:18.904Z,20.55
2018-09-29T08:40:47.558Z,19.98
2018-09-29T08:43:14.580Z,19.88
2018-09-29T08:45:41.778Z,19.70
2018-09-29T08:48:08.572Z,19.38
2018-09-29T08:50:36.098Z,19.26
2018-09-29T08:53:03.360Z,19.22
2018-09-29T08:55:29.856Z,19.62
2018-09-29T08:57:57.493Z,19.42
2018-09-29T09:00:23.989Z,19.52
2018-09-29T09:02:50.544Z,19.83
2018-09-29T09:05:17.049Z,19.45
2018-09-29T09:07:44.047Z,19.66
2018-09-29T09:10:10.877Z,20.23
2018-09-29T09:12:37.381Z,20.20
2018-09-29T09:15:04.493Z,19.96
2018-09-29T09:17:31.079Z,19.79
2018-09-29T09:19:57.548Z,19.82
2018-09-29T09:22:24.321Z,20.52
2018-09-29T09:24:51.621Z,20.74
2018-09-29T09:27:19.422Z,20.95
2018-09-29T09:29:46.735Z,21.31
2018-09-29T09:32:14.121Z,21.05
2018-09-29T09:34:41.424Z,21.17
2018-09-29T09:37:07.925Z,21.58
2018-09-29T09:39:34.441Z,21.45
2018-09-29T09:42:01.494Z,20.55
2018-09-29T09:44:28.817Z,20.43
2018-09-29T09:46:56.122Z,20.64
2018-09-29T09:49:22.923Z,21.22
2018-09-29T09:51:49.525Z,21.38
2018-09-29T09:54:17.006Z,21.75
2018-09-29T09:56:43.614Z,21.84
2018-09-29T09:59:11.523Z,21.60
2018-09-29T10:01:38.555Z,22.01
2018-09-29T10:04:05.081Z,22.07
2018-09-29T10:06:31.826Z,22.82
2018-09-29T10:08:58.745Z,23.26
2018-09-29T10:11:26.022Z,23.47
2018-09-29T10:13:52.699Z,23.16
2018-09-29T10:16:23.965Z,23.68
2018-09-29T10:18:52.429Z,22.77
2018-09-29T10:21:20.085Z,21.64
2018-09-29T10:23:48.208Z,22.10
2018-09-29T10:26:16.183Z,23.17
2018-09-29T10:28:43.271Z,23.55
2018-09-29T10:31:10.440Z,23.91
2018-09-29T10:33:36.953Z,24.01
2018-09-29T10:36:04.890Z,23.63
2018-09-29T10:38:32.990Z,23.34
2018-09-29T10:41:00.170Z,23.60
2018-09-29T10:43:27.681Z,23.02
2018-09-29T10:45:54.182Z,22.89
2018-09-29T10:48:20.667Z,23.35
2018-09-29T10:50:47.730Z,23.60
2018-09-29T10:53:14.468Z,24.31
2018-09-29T10:55:41.077Z,24.52
2018-09-29T10:58:08.133Z,24.00
2018-09-29T11:00:35.282Z,24.00
2018-09-29T11:03:02.321Z,24.39
2018-09-29T11:05:28.886Z,24.38
2018-09-29T11:07:55.739Z,24.75
2018-09-29T11:10:22.971Z,24.57
2018-09-29T11:12:50.540Z,24.14
2018-09-29T11:15:17.467Z,23.66
2018-09-29T11:17:45.392Z,24.27
2018-09-29T11:20:11.850Z,24.12
2018-09-29T11:22:38.676Z,24.29
2018-09-29T11:25:05.179Z,23.96
2018-09-29T11:27:31.725Z,24.05
2018-09-29T11:30:01.460Z,23.71
2018-09-29T11:32:30.126Z,24.50
2018-09-29T11:34:56.624Z,24.36
2018-09-29T11:37:23.558Z,24.44
2018-09-29T11:39:50.126Z,24.14
2018-09-29T11:42:17.735Z,24.59
2018-09-29T11:44:44.922Z,24.95
2018-09-29T11:47:12.457Z,25.22
2018-09-29T11:49:39.128Z,25.11
2018-09-29T11:52:05.818Z,25.48
2018-09-29T11:54:32.332Z,25.66
2018-09-29T11:56:58.972Z,25.91
2018-09-29T11:59:26.747Z,26.17
2018-09-29T12:01:55.067Z,25.94
2018-09-29T12:04:21.816Z,25.77
2018-09-29T12:06:49.310Z,25.94
2018-09-29T12:09:15.810Z,25.95
2018-09-29T12:11:43.266Z,25.42
2018-09-29T12:14:10.009Z,25.27
2018-09-29T12:16:36.829Z,25.60
2018-09-29T12:19:04.120Z,25.96
2018-09-29T12:24:02.845Z,25.23
2018-09-29T12:26:30.185Z,25.76
2018-09-29T12:28:56.675Z,24.69
2018-09-29T12:31:24.195Z,23.87
2018-09-29T12:33:50.696Z,23.29
2018-09-29T12:36:17.407Z,22.62
2018-09-29T12:38:45.033Z,23.18
2018-09-29T12:41:11.655Z,23.36
2018-09-29T12:43:38.247Z,24.41
2018-09-29T12:46:05.039Z,24.82
2018-09-29T12:48:32.147Z,24.91
2018-09-29T12:51:00.081Z,25.11
2018-09-29T12:53:26.678Z,24.79
2018-09-29T12:55:53.173Z,24.38
2018-09-29T12:58:21.024Z,24.10
2018-09-29T13:00:47.510Z,24.09
2018-09-29T13:03:14.729Z,24.18
2018-09-29T13:05:42.078Z,23.87
2018-09-29T13:08:08.603Z,23.32
2018-09-29T13:10:35.985Z,23.53
2018-09-29T13:13:03.222Z,23.87
2018-09-29T13:15:30.978Z,23.42
2018-09-29T13:17:57.506Z,23.22
2018-09-29T13:20:25.262Z,22.70
2018-09-29T13:22:52.530Z,22.12
2018-09-29T13:25:19.166Z,22.31
2018-09-29T13:27:46.284Z,22.12
2018-09-29T13:30:15.228Z,21.95
2018-09-29T13:32:42.013Z,22.18
2018-09-29T13:35:08.687Z,22.43
2018-09-29T13:37:35.928Z,22.88
2018-09-29T13:40:03.641Z,23.69
2018-09-29T13:42:31.160Z,23.77
2018-09-29T13:44:58.850Z,23.62
2018-09-29T13:47:26.360Z,23.84
2018-09-29T13:49:53.049Z,23.47
2018-09-29T13:52:20.347Z,22.48
2018-09-29T13:54:47.546Z,22.32
2018-09-29T13:57:14.869Z,22.82
2018-09-29T13:59:41.647Z,23.11
2018-09-29T14:02:08.236Z,22.90
2018-09-29T14:04:36.157Z,22.58
2018-09-29T14:07:03.269Z,22.53
2018-09-29T14:09:30.449Z,22.09
2018-09-29T14:11:57.041Z,22.16
2018-09-29T14:14:23.618Z,21.94
2018-09-29T14:16:50.143Z,22.19
2018-09-29T14:19:16.854Z,21.80
2018-09-29T14:21:44.067Z,21.45
2018-09-29T14:24:11.699Z,21.66
2018-09-29T14:26:38.289Z,21.88
2018-09-29T14:29:05.824Z,22.19
2018-09-29T14:31:32.340Z,22.39
2018-09-29T14:33:59.336Z,22.10
2018-09-29T14:36:25.861Z,21.17
2018-09-29T14:38:52.455Z,20.74
2018-09-29T14:41:19.201Z,21.02
2018-09-29T14:43:45.929Z,20.72
2018-09-29T14:46:12.384Z,20.82
2018-09-29T14:48:39.026Z,20.89
2018-09-29T14:51:05.776Z,20.91
2018-09-29T14:53:32.729Z,20.83
2018-09-29T14:56:00.328Z,20.93
2018-09-29T14:58:27.313Z,21.10
2018-09-29T15:00:54.048Z,21.51
2018-09-29T15:03:21.109Z,21.24
2018-09-29T15:05:47.764Z,20.83
2018-09-29T15:08:14.332Z,20.94
2018-09-29T15:10:42.269Z,21.21
2018-09-29T15:13:09.574Z,20.79
2018-09-29T15:15:36.368Z,21.14
2018-09-29T15:18:03.650Z,21.63
2018-09-29T15:20:30.469Z,21.11
2018-09-29T15:22:58.232Z,20.87
2018-09-29T15:25:26.601Z,20.49
2018-09-29T15:27:53.228Z,20.68
2018-09-29T15:30:19.860Z,20.68
2018-09-29T15:32:46.599Z,20.66
2018-09-29T15:35:13.411Z,20.44
2018-09-29T15:37:40.316Z,20.26
2018-09-29T15:40:07.680Z,20.26
2018-09-29T15:42:34.195Z,20.09
2018-09-29T15:45:00.911Z,19.74
2018-09-29T15:47:27.600Z,19.53
2018-09-29T15:49:57.225Z,19.62
2018-09-29T15:52:24.323Z,19.65
2018-09-29T15:54:50.889Z,19.58
2018-09-29T15:57:18.498Z,19.28
2018-09-29T15:59:46.717Z,19.28
2018-09-29T16:02:13.489Z,19.52
2018-09-29T16:04:40.498Z,19.47
2018-09-29T16:07:09.909Z,19.17
2018-09-29T16:09:36.694Z,18.94
2018-09-29T16:12:03.599Z,18.99
2018-09-29T16:14:31.289Z,18.82
2018-09-29T16:16:59.021Z,18.63
2018-09-29T16:19:25.575Z,18.65
2018-09-29T16:21:52.929Z,18.62
2018-09-29T16:24:20.109Z,18.39
2018-09-29T16:26:46.729Z,18.32
2018-09-29T16:29:13.484Z,18.25
2018-09-29T16:31:40.527Z,18.39
2018-09-29T16:34:08.376Z,18.54
2018-09-29T16:36:36.942Z,18.29
2018-09-29T16:39:03.697Z,18.36
2018-09-29T16:41:31.990Z,18.26
2018-09-29T16:43:58.577Z,18.25
2018-09-29T16:46:25.345Z,18.17
2018-09-29T16:48:52.508Z,18.14
2018-09-29T16:51:19.278Z,17.98
2018-09-29T16:53:45.969Z,17.83
2018-09-29T16:56:13.582Z,17.83
2018-09-29T16:58:40.112Z,17.66
2018-09-29T17:01:06.874Z,17.62
2018-09-29T17:03:33.434Z,17.84
2018-09-29T17:06:00.727Z,17.53
2018-09-29T17:08:28.176Z,17.55
2018-09-29T17:10:55.673Z,17.24
2018-09-29T17:13:23.344Z,16.97
2018-09-29T17:15:50.133Z,16.86
2018-09-29T17:18:16.884Z,16.57
2018-09-29T17:20:43.641Z,16.55
2018-09-29T17:23:10.268Z,16.64
2018-09-29T17:25:38.729Z,16.69
2018-09-29T17:28:05.872Z,16.70
2018-09-29T17:30:33.079Z,16.79
2018-09-29T17:33:00.396Z,16.62
2018-09-29T17:35:27.715Z,16.58
2018-09-29T17:37:54.197Z,16.50
2018-09-29T17:40:20.896Z,16.45
2018-09-29T17:42:52.419Z,16.28
2018-09-29T17:45:19.742Z,16.21
2018-09-29T17:47:46.635Z,16.16
2018-09-29T17:50:13.788Z,16.11
2018-09-29T17:52:41.648Z,15.89
2018-09-29T17:57:41.602Z,15.88
2018-09-29T18:00:08.320Z,15.80
2018-09-29T18:02:34.956Z,15.87
2018-09-29T18:05:01.703Z,15.77
2018-09-29T18:07:28.227Z,15.80
2018-09-29T18:09:55.232Z,15.52
2018-09-29T18:12:22.430Z,15.39
2018-09-29T18:14:49.929Z,15.27
2018-09-29T18:17:17.212Z,15.04
2018-09-29T18:19:44.560Z,14.91
2018-09-29T18:22:11.815Z,14.79
2018-09-29T18:24:38.301Z,14.74
2018-09-29T18:27:05.011Z,14.67
2018-09-29T18:29:32.782Z,14.62
2018-09-29T18:31:59.303Z,14.78
2018-09-29T18:36:58.556Z,14.59
2018-09-29T18:39:25.214Z,14.43
2018-09-29T18:41:52.376Z,14.61
2018-09-29T18:44:21.209Z,14.69
2018-09-29T18:46:48.497Z,14.76
2018-09-29T18:49:15.156Z,14.49
2018-09-29T18:51:41.921Z,14.43
2018-09-29T18:54:08.674Z,14.16
2018-09-29T18:56:35.855Z,13.91
2018-09-29T18:59:02.447Z,14.32
2018-09-29T19:01:28.944Z,14.48
2018-09-29T19:03:56.217Z,14.10
2018-09-29T19:06:22.808Z,13.93
2018-09-29T19:08:49.952Z,13.94
2018-09-29T19:11:17.894Z,13.83
2018-09-29T19:13:44.997Z,14.01
2018-09-29T19:16:12.481Z,14.02
2018-09-29T19:18:39.149Z,13.69
2018-09-29T19:21:06.417Z,13.34
2018-09-29T19:23:33.094Z,13.26
2018-09-29T19:26:00.746Z,13.30
2018-09-29T19:28:27.402Z,13.46
2018-09-29T19:30:54.068Z,13.38
2018-09-29T19:33:20.699Z,13.51
2018-09-29T19:35:47.543Z,13.24
2018-09-29T19:38:14.329Z,13.29
2018-09-29T19:40:41.707Z,13.44
2018-09-29T19:43:08.897Z,13.78
2018-09-29T19:45:36.045Z,13.49
2018-09-29T19:48:03.299Z,13.04
2018-09-29T19:50:30.159Z,12.94
2018-09-29T19:52:56.652Z,12.59
2018-09-29T19:55:23.358Z,12.54
2018-09-29T19:57:50.533Z,12.52
2018-09-29T20:00:17.422Z,12.56
2018-09-29T20:02:46.024Z,12.71
2018-09-29T20:05:12.473Z,12.69
2018-09-29T20:07:38.996Z,12.84
2018-09-29T20:10:06.278Z,12.69
2018-09-29T20:12:34.462Z,12.51
2018-09-29T20:15:01.741Z,12.44
2018-09-29T20:17:28.257Z,12.41
2018-09-29T20:19:55.890Z,12.26
2018-09-29T20:22:22.385Z,12.23
2018-09-29T20:24:49.427Z,12.28
2018-09-29T20:27:16.712Z,12.48
2018-09-29T20:29:43.382Z,12.45
2018-09-29T20:32:09.955Z,12.30
2018-09-29T20:34:36.575Z,12.20
2018-09-29T20:37:03.600Z,12.18
2018-09-29T20:39:30.673Z,12.20
2018-09-29T20:41:57.408Z,12.14
2018-09-29T20:44:24.249Z,11.96
2018-09-29T20:46:50.896Z,11.92
2018-09-29T20:49:17.400Z,11.96
2018-09-29T20:51:44.179Z,11.61
2018-09-29T20:54:11.636Z,11.61
2018-09-29T20:56:38.514Z,11.74
2018-09-29T20:59:05.034Z,11.68
2018-09-29T21:01:31.698Z,11.67
2018-09-29T21:03:58.594Z,11.70
2018-09-29T21:06:25.852Z,11.73
2018-09-29T21:08:52.925Z,11.56
2018-09-29T21:11:21.337Z,11.77
2018-09-29T21:13:48.437Z,11.77
2018-09-29T21:16:15.989Z,11.71
2018-09-29T21:18:42.507Z,11.69
2018-09-29T21:21:09.033Z,11.64
2018-09-29T21:23:37.267Z,11.54
2018-09-29T21:26:04.011Z,11.07
2018-09-29T21:28:31.748Z,11.16
2018-09-29T21:30:59.203Z,11.45
2018-09-29T21:33:27.434Z,11.51
2018-09-29T21:35:54.118Z,11.30
2018-09-29T21:38:20.751Z,11.07
2018-09-29T21:40:48.397Z,11.00
2018-09-29T21:43:15.070Z,11.38
2018-09-29T21:45:44.682Z,10.94
2018-09-29T21:48:11.711Z,10.90
2018-09-29T21:50:38.511Z,11.07
2018-09-29T21:55:37.464Z,11.38
2018-09-29T21:58:04.101Z,11.07
2018-09-29T22:00:31.353Z,10.98
2018-09-29T22:05:31.261Z,10.54
2018-09-29T22:07:57.886Z,10.70
2018-09-29T22:10:24.362Z,10.74
2018-09-29T22:12:51.704Z,10.72
2018-09-29T22:15:18.957Z,10.49
2018-09-29T22:17:46.541Z,10.62
2018-09-29T22:20:13.315Z,10.56
2018-09-29T22:22:41.105Z,10.58
2018-09-29T22:25:08.188Z,10.51
2018-09-29T22:27:35.335Z,10.63
2018-09-29T22:30:02.032Z,10.68
2018-09-29T22:32:28.621Z,10.48
2018-09-29T22:34:55.153Z,10.46
2018-09-29T22:37:21.815Z,10.39
2018-09-29T22:39:49.198Z,10.28
2018-09-29T22:42:15.917Z,10.07
2018-09-29T22:44:43.566Z,10.28
2018-09-29T22:47:10.329Z,10.35
2018-09-29T22:49:38.174Z,10.32
2018-09-29T22:52:05.403Z,10.25
2018-09-29T22:54:32.591Z,10.36
2018-09-29T22:56:59.159Z,10.34
2018-09-29T22:59:25.672Z,10.12
2018-09-29T23:01:52.897Z,10.02
2018-09-29T23:04:20.369Z,9.84
2018-09-29T23:06:47.295Z,9.81
2018-09-29T23:09:15.308Z,9.99
2018-09-29T23:11:41.908Z,9.85
2018-09-29T23:14:08.564Z,9.87
2018-09-29T23:16:35.185Z,9.90
2018-09-29T23:19:02.502Z,9.83
2018-09-29T23:21:29.793Z,9.88
2018-09-29T23:23:56.445Z,9.98
2018-09-29T23:26:24.780Z,9.75
2018-09-29T23:28:51.594Z,9.42
2018-09-29T23:31:18.812Z,9.48
2018-09-29T23:33:49.073Z,9.53
2018-09-29T23:36:16.307Z,9.50
2018-09-29T23:38:43.098Z,9.61
2018-09-29T23:41:11.186Z,9.51
2018-09-29T23:43:37.698Z,9.57
2018-09-29T23:46:04.280Z,9.70
2018-09-29T23:48:31.623Z,9.47
2018-09-29T23:50:58.284Z,9.29
2018-09-29T23:53:25.774Z,9.46
2018-09-29T23:55:53.397Z,9.49
2018-09-29T23:58:20.642Z,9.50
